Time;durP1;ratioP1;P1;durP2;ratioP2;P2;SDS_P1;SDS_P2;PMS_P1;PMS_P2;Temp;Humidity;BMP_temperature;BMP_pressure;BME280_temperature;BME280_humidity;BME280_pressure;Samples;Min_cycle;Max_cycle;Signal;HPM_P1;HPM_P2
2022/02/21 00:01:47;;;;;;;0.73;0.70;;;8.70;99.90;;;;;;4440156;32;20431;-64
2022/02/21 00:04:13;;;;;;;0.30;0.30;;;8.70;99.90;;;;;;4438605;32;20081;-64
2022/02/21 00:06:38;;;;;;;0.30;0.30;;;8.70;99.90;;;;;;4439350;32;20065;-64
2022/02/21 00:09:04;;;;;;;0.30;0.30;;;8.70;99.90;;;;;;4439734;32;20071;-64
2022/02/21 00:11:30;;;;;;;0.30;0.30;;;8.80;99.90;;;;;;4440035;32;20081;-64
2022/02/21 00:13:57;;;;;;;0.35;0.35;;;8.70;99.90;;;;;;4437274;32;20085;-64
2022/02/21 00:16:22;;;;;;;0.25;0.25;;;8.80;99.90;;;;;;4441315;32;20065;-64
2022/02/21 00:18:48;;;;;;;0.80;0.65;;;8.80;99.90;;;;;;4438637;32;20127;-64
2022/02/21 00:21:13;;;;;;;0.37;0.37;;;8.80;99.90;;;;;;4439829;32;20097;-64
2022/02/21 00:23:38;;;;;;;0.40;0.40;;;8.80;99.90;;;;;;4436694;32;20556;-64
2022/02/21 00:26:04;;;;;;;4.85;0.57;;;8.90;99.90;;;;;;4440354;32;20488;-64
2022/02/21 00:28:29;;;;;;;0.30;0.30;;;8.90;99.90;;;;;;4438719;32;20093;-64
2022/02/21 00:30:55;;;;;;;0.37;0.37;;;8.90;99.90;;;;;;4441589;32;20092;-65
2022/02/21 00:33:20;;;;;;;0.40;0.40;;;9.00;99.90;;;;;;4438323;32;20139;-64
2022/02/21 00:35:46;;;;;;;0.32;0.32;;;9.00;99.90;;;;;;4438766;32;20070;-64
2022/02/21 00:38:12;;;;;;;0.30;0.30;;;9.10;99.90;;;;;;4438639;32;20122;-64
2022/02/21 00:40:37;;;;;;;0.40;0.40;;;9.10;99.90;;;;;;4440535;32;20457;-64
2022/02/21 00:43:03;;;;;;;0.30;0.30;;;9.10;99.90;;;;;;4438390;32;20061;-64
2022/02/21 00:45:28;;;;;;;0.40;0.40;;;9.10;99.90;;;;;;4440078;32;20065;-64
2022/02/21 00:47:54;;;;;;;0.35;0.35;;;9.20;99.90;;;;;;4439968;32;20068;-64
2022/02/21 00:50:20;;;;;;;0.30;0.30;;;9.20;99.90;;;;;;4439587;32;20091;-63
2022/02/21 00:52:45;;;;;;;0.40;0.40;;;9.30;99.90;;;;;;4439148;32;20090;-63
2022/02/21 00:55:11;;;;;;;0.30;0.30;;;9.30;99.90;;;;;;4440433;32;20426;-64
2022/02/21 00:57:36;;;;;;;0.40;0.40;;;9.30;99.90;;;;;;4438408;32;20492;-63
2022/02/21 01:00:05;;;;;;;0.30;0.30;;;9.40;99.90;;;;;;4437652;32;20065;-63
2022/02/21 01:02:32;;;;;;;0.30;0.30;;;9.50;99.90;;;;;;4437892;32;20134;-64
2022/02/21 01:04:58;;;;;;;0.40;0.40;;;9.50;99.90;;;;;;4442237;32;20089;-64
2022/02/21 01:07:24;;;;;;;0.30;0.30;;;9.60;99.90;;;;;;4438063;32;20088;-65
2022/02/21 01:09:49;;;;;;;0.40;0.40;;;9.60;99.90;;;;;;4442041;32;20084;-64
2022/02/21 01:12:15;;;;;;;4.32;0.50;;;9.70;99.90;;;;;;4443284;32;20154;-66
2022/02/21 01:14:41;;;;;;;0.30;0.30;;;9.80;99.90;;;;;;4438056;32;20081;-66
2022/02/21 01:17:06;;;;;;;0.37;0.37;;;9.80;99.90;;;;;;4443084;32;20065;-63
2022/02/21 01:19:32;;;;;;;0.30;0.30;;;9.90;99.90;;;;;;4440086;32;20081;-63
2022/02/21 01:21:57;;;;;;;0.40;0.40;;;10.00;99.90;;;;;;4442474;32;20123;-63
2022/02/21 01:24:23;;;;;;;0.50;0.50;;;10.00;99.90;;;;;;4440385;32;20076;-65
2022/02/21 01:26:49;;;;;;;0.25;0.25;;;10.00;99.90;;;;;;4441525;32;20112;-65
2022/02/21 01:29:14;;;;;;;0.30;0.30;;;10.10;99.90;;;;;;4442064;32;20112;-64
2022/02/21 01:31:40;;;;;;;0.30;0.30;;;10.10;99.90;;;;;;4442462;32;20082;-64
2022/02/21 01:34:05;;;;;;;0.40;0.40;;;10.20;99.90;;;;;;4440611;32;20495;-64
2022/02/21 01:36:31;;;;;;;1.48;0.60;;;10.20;99.90;;;;;;4441287;32;20096;-64
2022/02/21 01:38:56;;;;;;;0.30;0.30;;;10.20;99.90;;;;;;4442420;32;20069;-64
2022/02/21 01:41:22;;;;;;;0.35;0.35;;;10.20;99.90;;;;;;4441357;32;20065;-64
2022/02/21 01:43:47;;;;;;;0.30;0.30;;;10.20;99.90;;;;;;4442762;32;20081;-64
2022/02/21 01:46:14;;;;;;;0.40;0.40;;;10.20;99.90;;;;;;4441911;32;20085;-64
2022/02/21 01:48:39;;;;;;;0.40;0.40;;;10.30;99.90;;;;;;4440000;32;20077;-64
2022/02/21 01:51:05;;;;;;;0.35;0.35;;;10.30;99.90;;;;;;4441685;32;20434;-64
2022/02/21 01:53:31;;;;;;;0.40;0.40;;;10.40;99.90;;;;;;4441101;32;20073;-64
2022/02/21 01:55:56;;;;;;;0.30;0.30;;;10.40;99.90;;;;;;4439098;32;20090;-64
2022/02/21 01:58:22;;;;;;;0.30;0.30;;;10.40;99.90;;;;;;4438591;32;20081;-65
2022/02/21 02:00:47;;;;;;;0.52;0.52;;;10.50;99.90;;;;;;4441473;32;20082;-64
2022/02/21 02:03:13;;;;;;;0.55;0.50;;;10.50;99.90;;;;;;4439293;32;20058;-64
2022/02/21 02:05:38;;;;;;;0.40;0.40;;;10.50;99.90;;;;;;4440555;32;20072;-65
2022/02/21 02:08:05;;;;;;;0.30;0.30;;;10.50;99.90;;;;;;4441655;32;20076;-65
2022/02/21 02:10:31;;;;;;;0.40;0.40;;;10.60;99.90;;;;;;4440926;32;20472;-65
2022/02/21 02:12:56;;;;;;;0.30;0.30;;;10.70;99.90;;;;;;4441288;32;20140;-65
2022/02/21 02:15:24;;;;;;;0.30;0.30;;;10.70;99.90;;;;;;4440121;32;20093;-65
2022/02/21 02:17:49;;;;;;;0.30;0.30;;;10.70;99.90;;;;;;4441320;32;20576;-65
2022/02/21 02:20:16;;;;;;;0.35;0.35;;;10.60;99.90;;;;;;4438574;32;20184;-65
2022/02/21 02:22:42;;;;;;;0.50;0.50;;;10.60;99.90;;;;;;4440623;32;20065;-65
2022/02/21 02:25:08;;;;;;;0.30;0.30;;;10.70;99.90;;;;;;4441953;32;20089;-65
2022/02/21 02:27:34;;;;;;;9.65;0.50;;;10.60;99.90;;;;;;4440366;32;20457;-65
2022/02/21 02:30:01;;;;;;;11.50;0.50;;;10.60;99.90;;;;;;4441693;32;20124;-65
2022/02/21 02:32:27;;;;;;;0.37;0.37;;;10.60;99.90;;;;;;4439179;32;20140;-65
2022/02/21 02:34:53;;;;;;;0.30;0.30;;;10.50;99.90;;;;;;4441481;32;20180;-65
2022/02/21 02:37:21;;;;;;;0.30;0.30;;;10.40;99.90;;;;;;4440614;32;20065;-65
2022/02/21 02:39:46;;;;;;;0.30;0.30;;;10.30;99.90;;;;;;4439017;32;20089;-64
2022/02/21 02:42:12;;;;;;;0.40;0.40;;;10.30;99.90;;;;;;4442464;32;20089;-65
2022/02/21 02:44:37;;;;;;;0.40;0.40;;;9.90;99.90;;;;;;4424980;32;20532;-65
2022/02/21 02:47:06;;;;;;;0.40;0.40;;;9.20;99.90;;;;;;4441550;32;20509;-63
2022/02/21 02:49:32;;;;;;;0.30;0.30;;;8.80;99.90;;;;;;4438898;32;20116;-64
2022/02/21 02:51:57;;;;;;;0.30;0.30;;;8.60;99.90;;;;;;4442002;32;20077;-63
2022/02/21 02:54:23;;;;;;;0.40;0.40;;;8.40;99.90;;;;;;4440721;32;20080;-63
2022/02/21 02:56:48;;;;;;;0.35;0.35;;;8.30;99.90;;;;;;4439790;32;20473;-65
2022/02/21 02:59:14;;;;;;;0.30;0.30;;;8.30;99.90;;;;;;4440582;32;20536;-64
2022/02/21 03:01:39;;;;;;;0.30;0.30;;;8.20;99.90;;;;;;4441408;32;20093;-64
2022/02/21 03:04:06;;;;;;;0.40;0.40;;;8.20;99.90;;;;;;4438405;32;20129;-64
2022/02/21 03:06:32;;;;;;;0.30;0.30;;;8.10;99.90;;;;;;4439590;32;20441;-64
2022/02/21 03:08:58;;;;;;;0.30;0.30;;;8.10;99.90;;;;;;4441782;32;20099;-64
2022/02/21 03:11:24;;;;;;;0.37;0.37;;;8.00;99.90;;;;;;4441485;32;20080;-64
2022/02/21 03:13:50;;;;;;;0.40;0.40;;;8.00;99.90;;;;;;4439420;32;20466;-64
2022/02/21 03:16:16;;;;;;;0.40;0.40;;;8.00;99.90;;;;;;4440371;32;20151;-64
2022/02/21 03:18:41;;;;;;;0.43;0.43;;;7.90;99.90;;;;;;4440325;32;20069;-64
2022/02/21 03:21:06;;;;;;;0.35;0.35;;;7.90;99.90;;;;;;4439592;32;20129;-64
2022/02/21 03:23:32;;;;;;;0.30;0.30;;;7.90;99.90;;;;;;4440810;32;20114;-64
2022/02/21 03:25:57;;;;;;;0.30;0.30;;;7.90;99.90;;;;;;4438868;32;20085;-64
2022/02/21 03:28:23;;;;;;;0.30;0.30;;;7.90;99.90;;;;;;4439345;32;20121;-64
2022/02/21 03:30:51;;;;;;;0.30;0.30;;;7.90;99.90;;;;;;4439817;32;20061;-65
2022/02/21 03:33:17;;;;;;;0.30;0.30;;;7.90;99.90;;;;;;4437239;32;20069;-64
2022/02/21 03:35:42;;;;;;;0.32;0.32;;;7.80;99.90;;;;;;4439285;32;20078;-64
2022/02/21 03:38:08;;;;;;;0.30;0.30;;;7.80;99.90;;;;;;4440235;32;20073;-64
2022/02/21 03:40:33;;;;;;;0.25;0.25;;;7.90;99.90;;;;;;4440831;32;20073;-64
2022/02/21 03:42:59;;;;;;;3.72;1.85;;;7.80;99.90;;;;;;4441473;32;20065;-64
2022/02/21 03:45:25;;;;;;;0.30;0.30;;;7.80;99.90;;;;;;4438301;32;20093;-64
2022/02/21 03:47:51;;;;;;;0.40;0.40;;;7.80;99.90;;;;;;4439780;32;20077;-64
2022/02/21 03:50:17;;;;;;;0.40;0.40;;;7.80;99.90;;;;;;4437140;32;20125;-64
2022/02/21 03:52:43;;;;;;;0.30;0.30;;;7.80;99.90;;;;;;4436923;32;20065;-64
2022/02/21 03:55:09;;;;;;;0.30;0.30;;;7.80;99.90;;;;;;4437679;32;20179;-64
2022/02/21 03:57:35;;;;;;;0.30;0.30;;;7.70;99.90;;;;;;4439088;32;20485;-64
2022/02/21 04:00:00;;;;;;;0.30;0.30;;;7.70;99.90;;;;;;4439580;32;20077;-64
2022/02/21 04:02:26;;;;;;;0.30;0.30;;;7.70;99.90;;;;;;4440320;32;20102;-64
2022/02/21 04:04:51;;;;;;;0.30;0.30;;;7.70;99.90;;;;;;4439474;32;20065;-64
2022/02/21 04:07:17;;;;;;;0.32;0.32;;;7.70;99.90;;;;;;4440596;32;20073;-64
2022/02/21 04:09:43;;;;;;;0.35;0.35;;;7.70;99.90;;;;;;4439683;32;20065;-64
2022/02/21 04:12:09;;;;;;;0.40;0.40;;;7.70;99.90;;;;;;4439217;32;20068;-64
2022/02/21 04:14:34;;;;;;;0.85;0.75;;;7.70;99.90;;;;;;4440815;32;20089;-65
2022/02/21 04:17:00;;;;;;;0.30;0.30;;;7.70;99.90;;;;;;4439021;32;20088;-65
2022/02/21 04:19:25;;;;;;;0.32;0.32;;;7.70;99.90;;;;;;4440959;32;20077;-65
2022/02/21 04:21:51;;;;;;;0.30;0.30;;;7.70;99.90;;;;;;4439940;32;20513;-65
2022/02/21 04:24:17;;;;;;;0.40;0.40;;;7.80;99.90;;;;;;4438381;32;20068;-64
2022/02/21 04:26:43;;;;;;;0.37;0.37;;;7.80;99.90;;;;;;4440072;32;20073;-64
2022/02/21 04:29:08;;;;;;;0.20;0.20;;;7.70;99.90;;;;;;4438472;32;20462;-64
2022/02/21 04:31:34;;;;;;;0.30;0.30;;;7.70;99.90;;;;;;4438806;32;20505;-64
2022/02/21 04:34:00;;;;;;;0.40;0.40;;;7.80;99.90;;;;;;4439056;32;20077;-64
2022/02/21 04:36:25;;;;;;;0.30;0.30;;;7.70;99.90;;;;;;4439188;32;20088;-64
2022/02/21 04:38:51;;;;;;;0.30;0.30;;;7.80;99.90;;;;;;4436292;32;20073;-66
2022/02/21 04:41:17;;;;;;;2.45;0.52;;;7.80;99.90;;;;;;4437466;32;20076;-65
2022/02/21 04:43:43;;;;;;;0.28;0.28;;;7.70;99.90;;;;;;4440392;32;20072;-65
2022/02/21 04:46:09;;;;;;;0.30;0.30;;;7.70;99.90;;;;;;4426255;32;20478;-65
2022/02/21 04:48:35;;;;;;;0.30;0.30;;;7.80;99.90;;;;;;4440631;32;20606;-65
2022/02/21 04:51:01;;;;;;;0.30;0.30;;;7.80;99.90;;;;;;4426586;32;20076;-65
2022/02/21 04:53:26;;;;;;;0.30;0.30;;;7.70;99.90;;;;;;4439428;32;20120;-65
2022/02/21 04:55:52;;;;;;;0.20;0.20;;;7.60;99.90;;;;;;4437458;32;20057;-65
2022/02/21 04:58:18;;;;;;;0.40;0.40;;;7.50;99.90;;;;;;4440326;32;20136;-65
2022/02/21 05:00:44;;;;;;;0.40;0.40;;;7.50;99.90;;;;;;4436315;32;20065;-65
2022/02/21 05:03:09;;;;;;;1.15;0.80;;;7.40;99.90;;;;;;4439539;32;20127;-65
2022/02/21 05:05:35;;;;;;;0.50;0.50;;;7.40;99.90;;;;;;4437418;32;20474;-65
2022/02/21 05:08:00;;;;;;;0.25;0.25;;;7.40;99.90;;;;;;4442001;32;20077;-65
2022/02/21 05:10:26;;;;;;;0.40;0.40;;;7.40;99.90;;;;;;4438422;32;20077;-65
2022/02/21 05:12:52;;;;;;;0.40;0.40;;;7.30;99.90;;;;;;4439304;32;20073;-64
2022/02/21 05:15:18;;;;;;;0.40;0.40;;;7.30;99.90;;;;;;4436479;32;20065;-64
2022/02/21 05:17:43;;;;;;;2.50;0.55;;;7.30;99.90;;;;;;4438517;32;20515;-64
2022/02/21 05:20:10;;;;;;;0.30;0.30;;;7.30;99.90;;;;;;4436523;32;20073;-65
2022/02/21 05:22:37;;;;;;;0.30;0.30;;;7.20;99.90;;;;;;4433843;32;20077;-64
2022/02/21 05:25:04;;;;;;;0.68;0.68;;;7.20;99.90;;;;;;4439060;32;20053;-64
2022/02/21 05:27:33;;;;;;;0.30;0.30;;;7.20;99.90;;;;;;4437546;32;20845;-64
2022/02/21 05:29:58;;;;;;;0.55;0.55;;;7.20;99.90;;;;;;4440533;32;20120;-64
2022/02/21 05:32:25;;;;;;;4.70;0.57;;;7.20;99.90;;;;;;4438934;32;20648;-64
2022/02/21 05:34:51;;;;;;;0.30;0.30;;;7.20;99.90;;;;;;4441049;32;20069;-64
2022/02/21 05:37:16;;;;;;;0.40;0.40;;;7.10;99.90;;;;;;4441495;32;20089;-64
2022/02/21 05:39:42;;;;;;;0.40;0.40;;;7.20;99.90;;;;;;4442800;32;20088;-65
2022/02/21 05:42:07;;;;;;;0.65;0.62;;;7.10;99.90;;;;;;4435440;32;20076;-64
2022/02/21 05:44:33;;;;;;;0.40;0.40;;;7.10;99.90;;;;;;4438226;32;20069;-64
2022/02/21 05:46:59;;;;;;;3.92;0.85;;;7.00;99.90;;;;;;4436633;32;20271;-64
2022/02/21 05:49:24;;;;;;;0.40;0.40;;;7.00;99.90;;;;;;4445019;32;20429;-65
2022/02/21 05:51:50;;;;;;;0.32;0.32;;;7.00;99.90;;;;;;4438989;32;20595;-64
2022/02/21 05:54:15;;;;;;;0.30;0.30;;;6.90;99.90;;;;;;4437127;32;20081;-64
2022/02/21 05:56:40;;;;;;;0.55;0.55;;;6.90;99.90;;;;;;4438522;32;20086;-64
2022/02/21 05:59:06;;;;;;;0.50;0.50;;;6.80;99.90;;;;;;4439818;32;20301;-64
2022/02/21 06:01:31;;;;;;;0.40;0.40;;;6.80;99.90;;;;;;4429389;32;20101;-64
2022/02/21 06:03:57;;;;;;;0.30;0.30;;;6.70;99.90;;;;;;4432671;32;20060;-64
2022/02/21 06:06:22;;;;;;;0.30;0.30;;;6.70;99.90;;;;;;4432963;32;20161;-64
2022/02/21 06:08:48;;;;;;;0.60;0.60;;;6.70;99.90;;;;;;4437305;32;21412;-64
2022/02/21 06:11:13;;;;;;;0.30;0.30;;;6.60;99.90;;;;;;4434160;32;20096;-64
2022/02/21 06:13:39;;;;;;;0.30;0.30;;;6.60;99.90;;;;;;4437772;32;20149;-64
2022/02/21 06:16:05;;;;;;;0.30;0.30;;;6.60;99.90;;;;;;4433610;32;20080;-64
2022/02/21 06:18:30;;;;;;;0.32;0.32;;;6.60;99.90;;;;;;4420893;32;20073;-64
2022/02/21 06:20:56;;;;;;;0.68;0.35;;;6.60;99.90;;;;;;4430534;32;20069;-64
2022/02/21 06:23:22;;;;;;;0.62;0.40;;;6.00;99.90;;;;;;4436798;32;20089;-64
2022/02/21 06:25:48;;;;;;;0.35;0.35;;;5.60;99.90;;;;;;4433863;32;20442;-64
2022/02/21 06:28:15;;;;;;;0.30;0.30;;;5.30;99.90;;;;;;4422849;32;20538;-64
2022/02/21 06:30:40;;;;;;;0.30;0.30;;;5.20;99.90;;;;;;4421587;32;20457;-65
2022/02/21 06:33:07;;;;;;;0.70;0.70;;;5.10;99.90;;;;;;4418726;32;20090;-64
2022/02/21 06:35:32;;;;;;;0.70;0.70;;;5.00;99.90;;;;;;4430222;32;20508;-64
2022/02/21 06:37:59;;;;;;;0.40;0.40;;;4.90;99.90;;;;;;4428621;32;20167;-64
2022/02/21 06:40:28;;;;;;;0.75;0.75;;;4.90;99.90;;;;;;4431754;32;20095;-64
2022/02/21 06:42:53;;;;;;;0.40;0.40;;;4.80;99.90;;;;;;4429997;32;20174;-65
2022/02/21 06:45:20;;;;;;;0.40;0.40;;;4.70;99.90;;;;;;4421890;32;20097;-64
2022/02/21 06:47:46;;;;;;;2.55;1.67;;;4.70;99.90;;;;;;4427557;32;20105;-65
2022/02/21 06:50:11;;;;;;;0.40;0.40;;;4.60;99.90;;;;;;4420196;32;20089;-65
2022/02/21 06:52:37;;;;;;;0.30;0.30;;;4.70;99.90;;;;;;4419929;32;20077;-65
2022/02/21 06:55:04;;;;;;;1.55;1.35;;;4.70;99.90;;;;;;4426238;32;20069;-65
2022/02/21 06:57:30;;;;;;;0.40;0.40;;;4.80;99.90;;;;;;4425084;32;20093;-65
2022/02/21 06:59:55;;;;;;;5.05;0.70;;;4.80;99.90;;;;;;4425856;32;20077;-65
2022/02/21 07:02:21;;;;;;;0.45;0.45;;;4.90;99.90;;;;;;4423354;32;20093;-65
2022/02/21 07:04:47;;;;;;;0.30;0.30;;;4.90;99.90;;;;;;4427237;32;20108;-66
2022/02/21 07:07:14;;;;;;;0.40;0.40;;;5.00;99.90;;;;;;4424558;32;20077;-65
2022/02/21 07:09:40;;;;;;;1.77;0.70;;;5.10;99.90;;;;;;4425490;32;20106;-65
2022/02/21 07:12:07;;;;;;;0.60;0.60;;;5.20;99.90;;;;;;4426852;32;20802;-64
2022/02/21 07:14:32;;;;;;;0.93;0.90;;;5.30;99.90;;;;;;4431297;32;20089;-65
2022/02/21 07:16:58;;;;;;;0.30;0.30;;;5.40;99.90;;;;;;4419888;32;20073;-65
2022/02/21 07:19:24;;;;;;;0.37;0.37;;;5.40;99.90;;;;;;4426081;32;20465;-65
2022/02/21 07:21:49;;;;;;;0.40;0.40;;;5.50;99.90;;;;;;4422275;32;20077;-65
2022/02/21 07:24:15;;;;;;;1.00;1.00;;;5.50;99.90;;;;;;4418502;32;20276;-65
2022/02/21 07:26:41;;;;;;;0.40;0.40;;;5.50;99.90;;;;;;4425363;32;20838;-65
2022/02/21 07:29:08;;;;;;;0.30;0.30;;;5.60;99.90;;;;;;4429878;32;20081;-66
2022/02/21 07:31:33;;;;;;;0.80;0.70;;;5.60;99.90;;;;;;4412785;32;20118;-65
2022/02/21 07:34:00;;;;;;;3.00;1.48;;;5.60;99.90;;;;;;4421946;32;113576;-65
2022/02/21 07:36:26;;;;;;;0.50;0.50;;;5.70;99.90;;;;;;4413603;32;21007;-65
2022/02/21 07:38:52;;;;;;;1.95;1.52;;;5.70;99.90;;;;;;4424521;32;20077;-65
2022/02/21 07:41:18;;;;;;;0.47;0.47;;;5.70;99.90;;;;;;4424938;32;20093;-66
2022/02/21 07:43:43;;;;;;;40.35;1.20;;;5.80;99.90;;;;;;4425352;32;20081;-65
2022/02/21 07:46:10;;;;;;;2.67;0.47;;;5.90;99.90;;;;;;4424148;32;20085;-65
2022/02/21 07:48:35;;;;;;;0.47;0.47;;;5.90;99.90;;;;;;4411377;32;20057;-65
2022/02/21 07:51:01;;;;;;;2.80;2.08;;;5.90;99.90;;;;;;4421695;32;20330;-65
2022/02/21 07:53:26;;;;;;;0.30;0.30;;;6.00;99.90;;;;;;4426387;32;20528;-65
2022/02/21 07:55:52;;;;;;;0.35;0.35;;;6.00;99.90;;;;;;4428340;32;20084;-65
2022/02/21 07:58:18;;;;;;;0.30;0.30;;;6.10;99.90;;;;;;4430067;32;20093;-65
2022/02/21 08:00:43;;;;;;;0.40;0.40;;;6.10;99.90;;;;;;4425398;32;20129;-64
2022/02/21 08:03:09;;;;;;;0.40;0.40;;;6.00;99.90;;;;;;4413158;32;20104;-64
2022/02/21 08:05:36;;;;;;;0.30;0.30;;;6.00;99.90;;;;;;4429059;32;20452;-64
2022/02/21 08:08:02;;;;;;;6.43;1.00;;;6.10;99.90;;;;;;4425965;32;20081;-64
2022/02/21 08:10:28;;;;;;;5.95;0.82;;;6.10;99.90;;;;;;4427689;32;20065;-64
2022/02/21 08:12:54;;;;;;;0.50;0.50;;;6.10;99.90;;;;;;4428456;32;20081;-64
2022/02/21 08:15:19;;;;;;;0.40;0.40;;;6.10;99.90;;;;;;4423581;32;20109;-64
2022/02/21 08:17:47;;;;;;;0.57;0.57;;;6.00;99.90;;;;;;4427600;32;20057;-64
2022/02/21 08:20:15;;;;;;;0.95;0.93;;;5.90;99.90;;;;;;4427589;32;20073;-64
2022/02/21 08:22:41;;;;;;;0.40;0.40;;;5.90;99.90;;;;;;4424500;32;20084;-65
2022/02/21 08:25:07;;;;;;;0.37;0.37;;;5.90;99.90;;;;;;4425201;32;20124;-65
2022/02/21 08:27:36;;;;;;;0.50;0.50;;;5.90;99.90;;;;;;4411413;32;20073;-64
2022/02/21 08:30:02;;;;;;;0.60;0.60;;;5.90;99.90;;;;;;4425690;32;20489;-65
2022/02/21 08:32:28;;;;;;;1.15;0.90;;;6.00;99.90;;;;;;4416625;32;20126;-64
2022/02/21 08:34:53;;;;;;;1.27;0.62;;;6.00;99.90;;;;;;4423856;32;20101;-65
2022/02/21 08:37:19;;;;;;;1.05;0.98;;;6.10;99.90;;;;;;4421727;32;20094;-65
2022/02/21 08:39:44;;;;;;;0.77;0.55;;;6.20;99.90;;;;;;4418887;32;20073;-65
2022/02/21 08:42:10;;;;;;;0.37;0.37;;;6.10;99.90;;;;;;4421954;32;20097;-64
2022/02/21 08:44:35;;;;;;;0.40;0.40;;;5.90;99.90;;;;;;4422733;32;20337;-64
2022/02/21 08:47:01;;;;;;;0.52;0.52;;;5.80;99.90;;;;;;4425296;32;20118;-65
2022/02/21 08:49:26;;;;;;;0.50;0.50;;;5.80;99.90;;;;;;4419577;32;20605;-64
2022/02/21 08:51:52;;;;;;;0.50;0.50;;;5.80;99.90;;;;;;4418674;32;22169;-64
2022/02/21 08:54:21;;;;;;;0.40;0.40;;;5.90;99.90;;;;;;4409292;32;20378;-65
2022/02/21 08:56:47;;;;;;;0.30;0.30;;;6.00;99.90;;;;;;4418045;32;20084;-64
2022/02/21 08:59:13;;;;;;;0.43;0.43;;;6.10;99.90;;;;;;4414735;32;20078;-65
2022/02/21 09:01:43;;;;;;;0.37;0.37;;;6.30;99.90;;;;;;4416264;32;20100;-66
2022/02/21 09:04:10;;;;;;;0.65;0.65;;;6.40;99.90;;;;;;4418719;32;20085;-65
2022/02/21 09:06:35;;;;;;;3.75;1.05;;;6.50;99.90;;;;;;4421496;32;20077;-64
2022/02/21 09:09:01;;;;;;;0.30;0.30;;;6.40;99.90;;;;;;4421590;32;20081;-65
2022/02/21 09:11:26;;;;;;;0.30;0.30;;;6.30;99.90;;;;;;4418993;32;20123;-65
2022/02/21 09:13:52;;;;;;;0.60;0.60;;;6.30;99.90;;;;;;4424441;32;20116;-64
2022/02/21 09:16:17;;;;;;;0.30;0.30;;;6.40;99.90;;;;;;4408100;32;20092;-63
2022/02/21 09:18:43;;;;;;;0.32;0.32;;;6.20;99.90;;;;;;4419608;32;20086;-64
2022/02/21 09:21:08;;;;;;;0.93;0.73;;;6.20;99.90;;;;;;4411971;32;20074;-65
2022/02/21 09:23:34;;;;;;;0.40;0.40;;;6.10;99.90;;;;;;4414371;32;20128;-63
2022/02/21 09:26:00;;;;;;;1.87;0.70;;;6.10;99.90;;;;;;4415982;32;20140;-63
2022/02/21 09:28:25;;;;;;;0.30;0.30;;;6.00;99.90;;;;;;4415985;32;20161;-64
2022/02/21 09:30:53;;;;;;;0.50;0.50;;;6.10;99.90;;;;;;4415499;32;21175;-63
2022/02/21 09:33:20;;;;;;;0.60;0.60;;;6.20;99.90;;;;;;4408192;32;20831;-63
2022/02/21 09:35:45;;;;;;;0.50;0.50;;;6.20;99.90;;;;;;4413105;32;20821;-63
2022/02/21 09:38:11;;;;;;;1.27;0.95;;;6.10;99.90;;;;;;4418637;32;20104;-63
2022/02/21 09:40:36;;;;;;;0.40;0.40;;;6.20;99.90;;;;;;4414787;32;20773;-64
2022/02/21 09:43:02;;;;;;;0.50;0.50;;;6.30;99.90;;;;;;4414876;32;20100;-64
2022/02/21 09:45:29;;;;;;;0.57;0.57;;;6.50;99.90;;;;;;4414315;32;21297;-64
2022/02/21 09:47:55;;;;;;;0.47;0.47;;;6.40;99.90;;;;;;4414112;32;20147;-64
2022/02/21 09:50:21;;;;;;;0.30;0.30;;;6.60;99.90;;;;;;4409221;32;20143;-64
2022/02/21 09:52:46;;;;;;;2.92;0.85;;;6.80;99.90;;;;;;4410479;32;20898;-64
2022/02/21 09:55:12;;;;;;;0.30;0.30;;;6.90;99.90;;;;;;4398732;32;20650;-64
2022/02/21 09:57:37;;;;;;;0.40;0.40;;;7.00;99.90;;;;;;4405517;32;20419;-64
2022/02/21 10:00:05;;;;;;;0.20;0.20;;;7.10;99.90;;;;;;4410962;32;20185;-64
2022/02/21 10:02:33;;;;;;;0.55;0.55;;;7.20;99.90;;;;;;4414540;32;20113;-64
2022/02/21 10:05:17;;;;;;;0.30;0.30;;;7.20;99.90;;;;;;4407379;32;20080;-64
2022/02/21 10:07:44;;;;;;;0.30;0.30;;;7.40;99.90;;;;;;4409045;32;20106;-64
2022/02/21 10:10:11;;;;;;;0.40;0.40;;;7.40;99.90;;;;;;4407757;32;21423;-64
2022/02/21 10:12:49;;;;;;;0.40;0.40;;;7.20;99.90;;;;;;4409340;32;20155;-64
2022/02/21 10:15:19;;;;;;;0.30;0.30;;;7.20;99.90;;;;;;4414653;32;20891;-62
2022/02/21 10:17:47;;;;;;;2.05;1.02;;;7.00;99.90;;;;;;4415480;32;20096;-64
2022/02/21 10:20:13;;;;;;;0.40;0.40;;;7.10;99.90;;;;;;4396087;32;20104;-64
2022/02/21 10:22:39;;;;;;;0.40;0.40;;;7.20;99.90;;;;;;4403199;32;20578;-64
2022/02/21 10:25:17;;;;;;;0.43;0.43;;;7.10;99.90;;;;;;4399581;32;20093;-65
2022/02/21 10:27:43;;;;;;;0.40;0.40;;;7.10;99.90;;;;;;4402002;32;20093;-63
2022/02/21 10:30:12;;;;;;;0.40;0.40;;;7.00;99.90;;;;;;4395969;32;20465;-63
2022/02/21 10:32:39;;;;;;;0.50;0.50;;;7.00;99.90;;;;;;4397332;32;20089;-63
2022/02/21 10:35:23;;;;;;;0.37;0.37;;;7.10;99.90;;;;;;4394654;32;20148;-63
2022/02/21 10:37:54;;;;;;;0.50;0.50;;;7.10;99.90;;;;;;4399575;32;20159;-64
2022/02/21 10:40:26;;;;;;;0.40;0.40;;;7.20;99.90;;;;;;4398555;32;20081;-64
2022/02/21 10:43:15;;;;;;;0.50;0.50;;;7.20;99.90;;;;;;4402294;32;20101;-63
2022/02/21 10:45:41;;;;;;;0.50;0.50;;;7.10;99.90;;;;;;4390754;32;20155;-64
2022/02/21 10:48:09;;;;;;;0.75;0.60;;;7.00;99.90;;;;;;4406986;32;20901;-64
2022/02/21 10:50:38;;;;;;;0.52;0.52;;;6.90;99.90;;;;;;4410692;32;20072;-63
2022/02/21 10:53:12;;;;;;;1.05;0.95;;;6.70;99.90;;;;;;4409197;32;21494;-63
2022/02/21 10:55:40;;;;;;;0.45;0.45;;;6.80;99.90;;;;;;4406553;32;20135;-63
2022/02/21 10:58:26;;;;;;;0.85;0.85;;;6.90;99.90;;;;;;4395536;32;20856;-63
2022/02/21 11:00:54;;;;;;;0.47;0.47;;;7.20;99.90;;;;;;4388317;32;20076;-63
2022/02/21 11:03:22;;;;;;;1.95;0.77;;;7.10;99.90;;;;;;4408289;32;20495;-63
2022/02/21 11:05:49;;;;;;;0.60;0.60;;;6.90;99.90;;;;;;4403129;32;20680;-64
2022/02/21 11:08:15;;;;;;;0.40;0.40;;;6.90;99.90;;;;;;4403922;32;20097;-63
2022/02/21 11:10:43;;;;;;;0.37;0.37;;;6.90;99.90;;;;;;4400832;32;20084;-64
2022/02/21 11:13:13;;;;;;;1.65;0.70;;;6.80;99.90;;;;;;4408124;32;20194;-64
2022/02/21 11:15:40;;;;;;;0.50;0.50;;;6.80;99.90;;;;;;4401849;32;21593;-63
2022/02/21 11:18:09;;;;;;;0.35;0.35;;;6.90;99.90;;;;;;4410342;32;20647;-62
2022/02/21 11:20:34;;;;;;;0.40;0.40;;;7.00;99.90;;;;;;4413868;32;20583;-62
2022/02/21 11:23:00;;;;;;;0.40;0.40;;;7.00;99.90;;;;;;4401349;32;20093;-63
2022/02/21 11:25:50;;;;;;;0.43;0.43;;;7.00;99.90;;;;;;4415781;32;20118;-61
2022/02/21 11:28:19;;;;;;;0.50;0.50;;;7.00;99.90;;;;;;4402455;32;20550;-64
2022/02/21 11:30:47;;;;;;;0.60;0.60;;;7.00;99.90;;;;;;4422255;32;20433;-64
2022/02/21 11:33:13;;;;;;;0.95;0.73;;;6.90;99.90;;;;;;4421338;32;20081;-62
2022/02/21 11:36:14;;;;;;;2.15;1.05;;;7.00;99.90;;;;;;4418040;32;20086;-63
2022/02/21 11:38:42;;;;;;;0.40;0.40;;;7.10;99.90;;;;;;4400360;32;20089;-62
2022/02/21 11:41:10;;;;;;;0.57;0.57;;;7.00;99.90;;;;;;4422237;32;20078;-63
2022/02/21 11:43:39;;;;;;;0.40;0.40;;;7.10;99.90;;;;;;4418247;32;20216;-63
2022/02/21 11:46:09;;;;;;;0.60;0.60;;;7.00;99.90;;;;;;4418722;32;20179;-64
2022/02/21 11:48:57;;;;;;;0.50;0.50;;;6.90;99.90;;;;;;4419398;32;20161;-65
2022/02/21 11:51:29;;;;;;;0.55;0.55;;;7.00;99.90;;;;;;4395700;32;20444;-65
2022/02/21 11:54:15;;;;;;;0.50;0.50;;;7.00;99.90;;;;;;4404810;32;20080;-64
2022/02/21 11:56:50;;;;;;;0.55;0.55;;;7.10;99.90;;;;;;4392858;32;20324;-64
2022/02/21 11:59:25;;;;;;;0.47;0.47;;;7.10;99.90;;;;;;4408459;32;20143;-64
2022/02/21 12:02:10;;;;;;;0.40;0.40;;;7.20;99.90;;;;;;4403997;32;20113;-65
2022/02/21 12:04:57;;;;;;;0.30;0.30;;;7.30;99.90;;;;;;4402093;32;20101;-64
2022/02/21 12:07:38;;;;;;;1.12;0.88;;;7.20;99.90;;;;;;4388629;32;20105;-65
2022/02/21 12:10:14;;;;;;;0.52;0.52;;;7.20;99.90;;;;;;4399310;32;20136;-64
2022/02/21 12:13:08;;;;;;;1.08;0.98;;;7.30;99.90;;;;;;4403293;32;20154;-66
2022/02/21 12:15:35;;;;;;;0.35;0.35;;;7.30;99.90;;;;;;4384704;32;20086;-64
2022/02/21 12:18:30;;;;;;;0.40;0.40;;;7.20;99.90;;;;;;4381774;32;20801;-65
2022/02/21 12:21:18;;;;;;;0.50;0.50;;;7.10;99.90;;;;;;4374113;32;20667;-64
2022/02/21 12:24:04;;;;;;;0.73;0.73;;;7.00;99.90;;;;;;4369442;32;20359;-64
2022/02/21 12:26:32;;;;;;;1.25;0.62;;;7.00;99.90;;;;;;4396476;32;20142;-64
2022/02/21 12:29:25;;;;;;;1.25;1.12;;;7.00;99.90;;;;;;4402301;32;20652;-65
2022/02/21 12:32:08;;;;;;;0.40;0.40;;;7.00;99.90;;;;;;4402064;32;20135;-64
2022/02/21 12:34:36;;;;;;;0.35;0.35;;;7.00;99.90;;;;;;4411224;32;20242;-64
2022/02/21 12:37:04;;;;;;;0.40;0.40;;;7.00;99.90;;;;;;4403726;32;20632;-65
2022/02/21 12:39:33;;;;;;;0.40;0.40;;;7.10;99.90;;;;;;4405696;32;21151;-65
2022/02/21 12:41:59;;;;;;;0.37;0.37;;;7.10;99.90;;;;;;4405700;32;21490;-65
2022/02/21 12:44:24;;;;;;;0.60;0.60;;;7.10;99.90;;;;;;4406382;32;20078;-65
2022/02/21 12:46:56;;;;;;;0.30;0.30;;;7.00;99.90;;;;;;4405627;32;20727;-65
2022/02/21 12:49:25;;;;;;;0.30;0.30;;;7.10;99.90;;;;;;4394287;32;20581;-64
2022/02/21 12:51:54;;;;;;;1.35;0.65;;;7.10;99.90;;;;;;4406363;32;20521;-65
2022/02/21 12:54:21;;;;;;;0.30;0.30;;;7.00;99.90;;;;;;4411646;32;20085;-63
2022/02/21 12:56:49;;;;;;;1.58;0.98;;;6.90;99.90;;;;;;4408627;32;20483;-64